createdAt,value
2022-12-22T01:59:17.635Z,10.30
2022-12-22T02:01:49.916Z,8.05
2022-12-22T02:04:16.905Z,10.18
2022-12-22T02:06:47.751Z,7.57
2022-12-22T02:09:25.684Z,11.82
2022-12-22T02:11:59.236Z,7.32
2022-12-22T02:14:46.743Z,10.15
2022-12-22T02:17:15.434Z,9.13
2022-12-22T02:19:45.242Z,6.90
2022-12-22T02:22:12.003Z,8.75
2022-12-22T02:25:04.242Z,9.65
2022-12-22T02:30:35.409Z,8.18
2022-12-22T02:33:08.893Z,8.07
2022-12-22T02:35:31.170Z,8.43
2022-12-22T02:37:58.808Z,9.27
2022-12-22T02:43:13.204Z,5.60
2022-12-22T02:48:37.046Z,7.38
2022-12-22T02:51:10.766Z,7.50
2022-12-22T02:53:47.259Z,7.55
2022-12-22T02:56:20.011Z,8.40
2022-12-22T02:59:17.612Z,7.55
2022-12-22T03:01:49.440Z,7.47
2022-12-22T03:04:17.429Z,5.60
2022-12-22T03:07:04.964Z,6.93
2022-12-22T03:09:38.149Z,5.32
2022-12-22T03:11:59.752Z,5.53
2022-12-22T05:33:29.960Z,4.53
2022-12-22T05:35:38.859Z,7.53
2022-12-22T05:37:49.894Z,6.07
2022-12-22T05:40:33.809Z,4.05
2022-12-22T05:43:10.674Z,7.22
2022-12-22T05:55:00.144Z,4.88
2022-12-22T05:57:44.642Z,4.82
2022-12-22T06:00:22.807Z,4.70
2022-12-22T06:02:31.074Z,4.85
2022-12-22T06:04:41.425Z,7.25
2022-12-22T06:06:50.082Z,5.63
2022-12-22T06:09:04.299Z,6.47
2022-12-22T06:11:20.665Z,5.00
2022-12-22T06:13:37.561Z,6.45
2022-12-22T06:16:04.064Z,5.70
2022-12-22T06:18:26.345Z,3.83
2022-12-22T06:21:08.656Z,5.43
2022-12-22T06:26:19.382Z,5.10
2022-12-22T06:28:58.607Z,3.85
2022-12-22T06:31:07.747Z,5.43
2022-12-22T06:33:14.319Z,3.45
2022-12-22T06:35:21.176Z,2.50
2022-12-22T06:37:25.570Z,5.95
2022-12-22T06:39:30.111Z,2.97
2022-12-22T06:41:59.876Z,2.80
2022-12-22T06:44:07.515Z,2.67
2022-12-22T06:46:43.879Z,3.90
2022-12-22T06:49:32.397Z,2.92
2022-12-22T07:15:20.660Z,5.18
2022-12-22T07:17:24.789Z,3.90
2022-12-22T07:19:31.748Z,1.50
2022-12-22T07:21:41.098Z,2.03
2022-12-22T07:26:33.587Z,2.70
2022-12-22T07:28:41.607Z,2.05
2022-12-22T07:37:43.373Z,3.42
2022-12-22T07:39:50.204Z,3.95
2022-12-22T07:42:12.462Z,4.10
2022-12-22T08:36:30.936Z,3.90
2022-12-22T08:38:34.571Z,1.98
2022-12-22T08:40:39.964Z,4.18
2022-12-22T08:42:44.275Z,4.13
2022-12-22T08:44:58.985Z,3.25
2022-12-22T08:50:42.564Z,3.55
2022-12-22T08:56:06.076Z,1.83
2022-12-22T08:58:53.467Z,2.95
2022-12-22T09:01:03.072Z,2.20
2022-12-22T09:03:22.794Z,1.95
2022-12-22T09:05:34.170Z,3.05
2022-12-22T09:07:55.538Z,4.45
2022-12-22T09:09:59.457Z,4.70
2022-12-22T09:12:07.552Z,5.03
2022-12-22T09:14:15.716Z,6.32
2022-12-22T09:19:19.853Z,6.30
2022-12-22T09:21:35.763Z,6.47
2022-12-22T09:23:46.125Z,5.47
2022-12-22T09:26:01.860Z,9.80
2022-12-22T09:28:35.560Z,5.28
2022-12-22T09:31:41.308Z,7.30
2022-12-22T09:34:17.098Z,6.35
2022-12-22T09:36:42.594Z,6.35
2022-12-22T09:39:26.771Z,4.60
2022-12-22T09:42:27.719Z,5.53
2022-12-22T09:45:02.051Z,8.63
2022-12-22T09:47:20.882Z,5.15
2022-12-22T09:52:51.522Z,5.07
2022-12-22T09:55:32.806Z,4.95
2022-12-22T09:57:54.875Z,8.80
2022-12-22T21:00:11.554Z,33.45
2022-12-22T21:02:37.267Z,31.33
2022-12-22T21:04:46.359Z,29.88
2022-12-22T21:06:55.320Z,30.65
2022-12-22T21:09:03.569Z,32.70
2022-12-22T21:11:18.273Z,31.00
2022-12-22T21:13:27.131Z,30.30
2022-12-22T21:15:44.252Z,33.13
2022-12-22T21:17:55.957Z,36.38
2022-12-22T21:20:05.877Z,39.07
2022-12-22T21:22:12.962Z,32.15
2022-12-22T21:24:19.102Z,36.10
2022-12-22T21:26:35.588Z,41.80
2022-12-22T21:28:44.492Z,45.67
2022-12-22T21:31:07.579Z,45.55
2022-12-22T21:33:14.056Z,39.95
2022-12-22T21:35:22.033Z,32.60
2022-12-22T21:37:52.489Z,47.42
2022-12-22T21:40:01.634Z,46.35
2022-12-22T21:42:07.889Z,39.05
2022-12-22T21:44:26.702Z,38.60
2022-12-22T21:46:55.398Z,47.15
2022-12-22T21:51:39.752Z,27.90
2022-12-22T21:53:54.555Z,44.55
2022-12-22T21:56:22.746Z,30.42
2022-12-22T21:58:31.497Z,21.38
2022-12-22T22:00:49.351Z,43.60
2022-12-22T22:02:56.542Z,24.60
2022-12-22T22:05:03.278Z,28.48
2022-12-22T22:07:46.872Z,28.08
2022-12-22T22:10:01.072Z,24.30
2022-12-22T22:12:28.369Z,27.70
2022-12-22T22:14:32.426Z,19.13
2022-12-22T22:26:27.835Z,16.90
2022-12-22T22:29:38.173Z,21.73
2022-12-22T22:31:55.885Z,20.60
2022-12-22T22:34:23.151Z,24.27
2022-12-22T22:37:09.424Z,21.58
2022-12-22T22:42:40.947Z,19.20
2022-12-22T22:45:27.643Z,20.00
2022-12-22T22:48:10.488Z,19.60
2022-12-22T22:50:30.289Z,15.53
2022-12-22T22:52:45.053Z,23.35
2022-12-22T22:55:04.725Z,19.70
2022-12-22T22:57:27.924Z,18.05
2022-12-22T22:59:39.229Z,18.92
2022-12-22T23:01:44.393Z,21.88
2022-12-22T23:03:50.755Z,22.30
2022-12-22T23:05:59.675Z,21.98
2022-12-22T23:08:07.303Z,22.58
2022-12-22T23:10:15.278Z,19.35
2022-12-22T23:12:46.045Z,22.30
2022-12-22T23:14:50.126Z,20.90
2022-12-22T23:16:56.732Z,19.42
2022-12-22T23:19:26.768Z,22.67
2022-12-22T23:21:33.019Z,25.75
2022-12-22T23:24:05.830Z,26.95
2022-12-22T23:26:41.295Z,16.17
2022-12-22T23:29:08.634Z,26.98
2022-12-22T23:31:16.681Z,19.05
2022-12-22T23:33:31.362Z,15.10
2022-12-22T23:35:50.454Z,21.83
2022-12-22T23:37:58.939Z,25.42
2022-12-22T23:40:50.389Z,25.77
2022-12-22T23:42:42.917Z,18.48
2022-12-22T23:44:50.016Z,19.98
